Portada
METAR-TAF:

METAR-TAF

Aeroports :

Hagi, Japó

latitud: 34-40N, longitud: 131-48E, altitud: 54 m

Observació

L'informe es va fer fa 51 minuts, a les 08:00 UTC
Vent 5 kt del Oest, variant entre Sud/Sud-Oest i Oest/Nord-Oest
Temperatura 22°C
Humitat 100%
Pressió 1011 hPa
Visibilitat: 4000 m
Escasses núvols a una alçada de 200 ft
Núvols disperses a una alçada de 1000 ft
Cel ennuvolat a una alçada de 1500 ft
xàfecs de pluja, boirina

METAR: RJOW 290800Z 26005KT 210V290 4000 SHRA BR FEW002 SCT010 BKN015 22/22 Q1011

Hora: 17:51 (08:51 UTC)


TAF: manca

Observacions i pronòstics meteorològics de més de 4000 aeroports (METAR i TAF).

Les estacions disponibles són els punts grocs i vermells al mapa.

Posi el ratolí al punt desitjat per veure el nom de l'estació.

Feu clic per veure les observacions i els pronòstics meteorològics.

Per canviar el mapa: feu clic els botons verds amb una creu de color negre per apropar; al botó verd amb un guió per allunyar la imatge; o en les fletxes verdes per a mapes adjacents.


METAR-TAF: